createdAt,value
2022-12-29T00:00:18.307Z,96417.38
2022-12-29T00:02:45.449Z,96412.53
2022-12-29T00:05:12.579Z,96408.19
2022-12-29T00:07:39.730Z,96405.44
2022-12-29T00:10:07.281Z,96404.38
2022-12-29T00:12:54.256Z,96401.16
2022-12-29T00:15:39.530Z,96398.91
2022-12-29T00:18:08.005Z,96394.72
2022-12-29T00:20:57.556Z,96391.34
2022-12-29T00:23:43.402Z,96397.69
2022-12-29T00:26:33.652Z,96399.63
2022-12-29T00:29:19.505Z,96393.50
2022-12-29T00:32:04.920Z,96391.72
2022-12-29T00:34:50.403Z,96399.19
2022-12-29T00:37:18.118Z,96391.47
2022-12-29T00:40:03.682Z,96389.56
2022-12-29T00:42:50.606Z,96376.06
2022-12-29T00:45:17.617Z,96376.84
2022-12-29T00:47:45.160Z,96373.97
2022-12-29T00:50:12.128Z,96374.19
2022-12-29T00:52:39.061Z,96369.03
2022-12-29T00:55:06.451Z,96370.59
2022-12-29T00:57:34.067Z,96376.75
2022-12-29T01:00:01.229Z,96373.00
2022-12-29T01:02:30.375Z,96372.84
2022-12-29T01:04:57.519Z,96372.50
2022-12-29T01:07:24.392Z,96363.16
2022-12-29T01:10:10.017Z,96368.31
2022-12-29T01:12:43.066Z,96365.91
2022-12-29T01:15:15.308Z,96362.69
2022-12-29T01:17:42.734Z,96368.03
2022-12-29T01:20:10.336Z,96373.72
2022-12-29T01:22:37.471Z,96366.53
2022-12-29T01:25:05.377Z,96375.63
2022-12-29T01:27:32.476Z,96375.53
2022-12-29T01:29:59.612Z,96383.28
2022-12-29T01:32:26.578Z,96378.66
2022-12-29T01:34:53.562Z,96387.25
2022-12-29T01:37:20.562Z,96381.53
2022-12-29T01:39:47.586Z,96376.84
2022-12-29T01:42:19.534Z,96376.38
2022-12-29T01:45:09.466Z,96365.25
2022-12-29T01:47:42.704Z,96370.78
2022-12-29T01:50:28.678Z,96362.78
2022-12-29T01:53:08.930Z,96351.16
2022-12-29T01:55:44.685Z,96345.31
2022-12-29T01:58:15.977Z,96346.53
2022-12-29T02:00:43.085Z,96343.47
2022-12-29T02:03:11.543Z,96346.53
2022-12-29T02:05:52.847Z,96352.34
2022-12-29T02:08:23.719Z,96341.75
2022-12-29T02:10:50.853Z,96336.59
2022-12-29T02:13:21.414Z,96327.09
2022-12-29T02:16:10.384Z,96322.72
2022-12-29T02:18:57.916Z,96327.88
2022-12-29T02:21:34.125Z,96316.31
2022-12-29T02:24:39.283Z,96325.28
2022-12-29T02:27:43.666Z,96314.16
2022-12-29T02:30:18.510Z,96321.25
2022-12-29T02:32:48.512Z,96318.69
2022-12-29T02:35:27.085Z,96314.34
2022-12-29T02:38:01.682Z,96315.31
2022-12-29T02:40:43.773Z,96316.09
2022-12-29T02:43:22.837Z,96314.34
2022-12-29T02:46:05.695Z,96317.38
2022-12-29T02:48:55.666Z,96312.03
2022-12-29T02:51:37.147Z,96306.44
2022-12-29T02:54:23.347Z,96311.94
2022-12-29T02:56:50.773Z,96311.94
2022-12-29T02:59:18.625Z,96313.69
2022-12-29T03:02:18.929Z,96308.22
2022-12-29T03:05:06.555Z,96301.13
2022-12-29T03:08:08.253Z,96307.25
2022-12-29T03:10:45.726Z,96301.13
2022-12-29T03:13:55.625Z,96301.91
2022-12-29T03:16:43.679Z,96297.53
2022-12-29T03:19:21.372Z,96302.69
2022-12-29T03:22:14.627Z,96305.47
2022-12-29T03:24:48.977Z,96301.44
2022-12-29T03:27:24.388Z,96294.69
2022-12-29T03:29:56.268Z,96297.81
2022-12-29T03:32:26.968Z,96303.75
2022-12-29T03:34:56.105Z,96295.66
2022-12-29T03:37:27.327Z,96293.09
2022-12-29T03:39:54.390Z,96294.84
2022-12-29T03:42:25.128Z,96289.44
2022-12-29T03:44:57.505Z,96290.78
2022-12-29T03:47:25.847Z,96297.34
2022-12-29T03:49:53.007Z,96294.31
2022-12-29T03:52:20.493Z,96307.38
2022-12-29T03:54:48.465Z,96299.16
2022-12-29T03:57:15.586Z,96294.38
2022-12-29T04:00:06.808Z,96294.91
2022-12-29T04:02:42.556Z,96296.69
2022-12-29T04:05:13.785Z,96297.03
2022-12-29T04:07:41.486Z,96293.81
2022-12-29T04:10:09.277Z,96291.25
2022-12-29T04:12:36.873Z,96289.72
2022-12-29T04:15:04.204Z,96284.38
2022-12-29T04:17:31.786Z,96281.53
2022-12-29T04:20:18.705Z,96278.94
2022-12-29T04:22:45.903Z,96287.81
2022-12-29T04:25:13.567Z,96287.00
2022-12-29T04:27:43.082Z,96284.78
2022-12-29T04:30:36.309Z,96285.81
2022-12-29T04:33:24.225Z,96295.22
2022-12-29T04:35:51.696Z,96288.16
2022-12-29T04:38:18.675Z,96289.13
2022-12-29T04:40:48.222Z,96289.25
2022-12-29T04:43:17.809Z,96290.63
2022-12-29T04:46:11.075Z,96297.38
2022-12-29T04:48:46.371Z,96290.28
2022-12-29T04:51:32.771Z,96281.75
2022-12-29T04:54:00.570Z,96288.34
2022-12-29T04:56:28.867Z,96287.69
2022-12-29T04:58:55.935Z,96288.50
2022-12-29T05:01:23.156Z,96290.28
2022-12-29T05:03:52.501Z,96285.75
2022-12-29T05:06:19.608Z,96294.75
2022-12-29T05:08:46.703Z,96287.66
2022-12-29T05:11:13.886Z,96308.09
2022-12-29T05:13:41.094Z,96302.50
2022-12-29T05:16:09.229Z,96303.44
2022-12-29T05:18:36.542Z,96310.66
2022-12-29T05:21:04.376Z,96313.84
2022-12-29T05:23:31.619Z,96315.28
2022-12-29T05:26:06.177Z,96311.91
2022-12-29T05:28:52.151Z,96309.34
2022-12-29T05:31:20.384Z,96312.53
2022-12-29T05:33:48.701Z,96308.97
2022-12-29T05:36:15.977Z,96307.72
2022-12-29T05:38:48.182Z,96317.66
2022-12-29T05:41:15.747Z,96312.19
2022-12-29T05:44:01.937Z,96315.56
2022-12-29T05:46:29.534Z,96320.38
2022-12-29T05:49:19.977Z,96318.44
2022-12-29T05:52:06.499Z,96316.31
2022-12-29T05:54:34.376Z,96314.19
2022-12-29T05:57:02.945Z,96319.34
2022-12-29T05:59:31.058Z,96311.47
2022-12-29T06:01:58.561Z,96315.00
2022-12-29T06:04:26.263Z,96317.56
2022-12-29T06:06:53.507Z,96315.81
2022-12-29T06:09:29.671Z,96318.22
2022-12-29T06:11:57.314Z,96324.97
2022-12-29T06:14:24.501Z,96321.13
2022-12-29T06:16:52.070Z,96328.84
2022-12-29T06:19:19.217Z,96334.03
2022-12-29T06:21:46.819Z,96333.44
2022-12-29T06:24:14.017Z,96331.81
2022-12-29T06:26:41.498Z,96338.25
2022-12-29T06:29:09.582Z,96336.84
2022-12-29T06:31:36.929Z,96343.59
2022-12-29T06:34:08.278Z,96345.00
2022-12-29T06:36:37.335Z,96345.66
2022-12-29T06:39:05.417Z,96350.66
2022-12-29T06:41:33.018Z,96332.47
2022-12-29T06:44:20.783Z,96338.84
2022-12-29T06:46:53.897Z,96343.03
2022-12-29T06:49:21.177Z,96337.53
2022-12-29T06:51:48.389Z,96335.59
2022-12-29T06:54:15.821Z,96329.44
2022-12-29T06:56:43.745Z,96340.66
2022-12-29T06:59:11.552Z,96336.59
2022-12-29T07:01:38.920Z,96341.84
2022-12-29T07:04:06.379Z,96346.94
2022-12-29T07:06:33.539Z,96340.78
2022-12-29T07:09:00.978Z,96332.97
2022-12-29T07:11:28.140Z,96339.84
2022-12-29T07:13:55.417Z,96347.03
2022-12-29T07:16:22.712Z,96341.03
2022-12-29T07:18:50.058Z,96347.53
2022-12-29T07:21:17.817Z,96349.06
2022-12-29T07:23:45.221Z,96343.31
2022-12-29T07:26:14.252Z,96347.38
2022-12-29T07:28:43.025Z,96341.97
2022-12-29T07:31:21.145Z,96340.28
2022-12-29T07:33:49.115Z,96340.44
2022-12-29T07:36:17.023Z,96339.56
2022-12-29T07:38:44.574Z,96348.47
2022-12-29T07:41:11.659Z,96352.03
2022-12-29T07:43:39.137Z,96358.66
2022-12-29T07:46:55.518Z,96352.00
2022-12-29T07:49:14.024Z,96361.78
2022-12-29T07:51:41.224Z,96363.81
2022-12-29T07:54:08.536Z,96360.06
2022-12-29T07:56:35.617Z,96360.31
2022-12-29T07:59:02.856Z,96362.63
2022-12-29T08:01:30.179Z,96362.28
2022-12-29T08:03:58.001Z,96359.69
2022-12-29T08:06:25.346Z,96355.38
2022-12-29T08:08:52.698Z,96366.94
2022-12-29T08:11:19.935Z,96358.28
2022-12-29T08:13:47.095Z,96354.78
2022-12-29T08:16:14.283Z,96355.66
2022-12-29T08:18:41.695Z,96361.69
2022-12-29T08:21:08.936Z,96356.56
2022-12-29T08:23:36.105Z,96351.09
2022-12-29T08:26:06.075Z,96346.78
2022-12-29T08:28:34.310Z,96353.03
2022-12-29T08:31:02.885Z,96352.88
2022-12-29T08:33:30.863Z,96355.16
2022-12-29T08:36:05.868Z,96358.19
2022-12-29T08:38:33.818Z,96344.94
2022-12-29T08:41:02.367Z,96353.16
2022-12-29T08:43:29.977Z,96356.59
2022-12-29T08:45:59.368Z,96351.28
2022-12-29T08:48:28.174Z,96356.09
2022-12-29T08:50:55.656Z,96360.31
2022-12-29T08:53:22.900Z,96368.34
2022-12-29T08:56:04.625Z,96358.81
2022-12-29T08:58:41.976Z,96371.00
2022-12-29T09:01:11.098Z,96374.81
2022-12-29T09:04:13.075Z,96370.63
2022-12-29T09:06:26.388Z,96371.06
2022-12-29T09:08:55.935Z,96370.09
2022-12-29T09:11:26.025Z,96362.56
2022-12-29T09:13:54.097Z,96359.38
2022-12-29T09:16:23.391Z,96362.41
2022-12-29T09:18:51.859Z,96366.63
2022-12-29T09:21:19.295Z,96370.03
2022-12-29T09:23:46.664Z,96373.84
2022-12-29T09:26:14.020Z,96359.25
2022-12-29T09:28:41.544Z,96360.81
2022-12-29T09:31:09.024Z,96365.41
2022-12-29T09:33:36.175Z,96356.72
2022-12-29T09:36:03.862Z,96360.66
2022-12-29T09:38:31.901Z,96356.97
2022-12-29T09:41:08.223Z,96361.00
2022-12-29T09:43:44.217Z,96351.06
2022-12-29T09:46:50.137Z,96348.69
2022-12-29T09:49:47.378Z,96345.34
2022-12-29T09:52:31.096Z,96338.06
2022-12-29T09:55:15.899Z,96340.91
2022-12-29T09:58:19.862Z,96335.59
2022-12-29T10:00:55.356Z,96335.03
2022-12-29T10:03:25.573Z,96327.38
2022-12-29T10:06:16.939Z,96336.31
2022-12-29T10:09:08.864Z,96324.81
2022-12-29T10:11:47.623Z,96326.72
2022-12-29T10:14:30.817Z,96324.69
2022-12-29T10:17:49.936Z,96325.50
2022-12-29T10:20:30.296Z,96316.03
2022-12-29T10:23:30.936Z,96312.28
2022-12-29T10:25:59.819Z,96317.19
2022-12-29T10:28:41.871Z,96313.91
2022-12-29T10:31:23.039Z,96306.94
2022-12-29T10:33:57.668Z,96309.63
2022-12-29T10:36:42.176Z,96301.00
2022-12-29T10:39:27.975Z,96302.06
2022-12-29T10:42:10.816Z,96299.56
2022-12-29T10:44:38.500Z,96304.41
2022-12-29T10:47:20.351Z,96303.78
2022-12-29T10:49:49.425Z,96293.66
2022-12-29T10:52:19.020Z,96304.25
2022-12-29T10:55:00.465Z,96295.84
2022-12-29T10:57:33.737Z,96305.72
2022-12-29T11:00:01.187Z,96297.81
2022-12-29T11:02:40.654Z,96294.28
2022-12-29T11:05:20.976Z,96291.97
2022-12-29T11:07:50.819Z,96283.25
2022-12-29T11:10:42.177Z,96286.41
2022-12-29T11:13:16.626Z,96280.44
2022-12-29T11:15:51.545Z,96282.38
2022-12-29T11:18:29.056Z,96282.69
2022-12-29T11:21:28.377Z,96276.22
2022-12-29T11:24:01.616Z,96282.94
2022-12-29T11:26:34.161Z,96278.75
2022-12-29T11:29:28.460Z,96275.09
2022-12-29T11:31:58.870Z,96272.44
2022-12-29T11:34:36.714Z,96268.78
2022-12-29T11:37:13.496Z,96270.88
2022-12-29T11:39:44.217Z,96270.88
2022-12-29T11:42:21.071Z,96277.72
2022-12-29T11:44:50.821Z,96265.59
2022-12-29T11:47:29.782Z,96262.94
2022-12-29T11:50:04.229Z,96264.53
2022-12-29T11:52:36.458Z,96263.47
2022-12-29T11:55:06.859Z,96255.53
2022-12-29T11:57:36.583Z,96254.97
2022-12-29T12:00:17.828Z,96257.56
2022-12-29T12:13:34.345Z,96247.28
2022-12-29T12:16:20.130Z,96241.78
2022-12-29T12:19:05.657Z,96239.47
2022-12-29T12:21:45.980Z,96231.16
2022-12-29T12:24:46.984Z,96228.56
2022-12-29T12:27:25.776Z,96223.13
2022-12-29T12:30:15.536Z,96231.22
2022-12-29T12:33:12.696Z,96224.72
2022-12-29T12:36:01.347Z,96228.84
2022-12-29T12:38:42.660Z,96223.22
2022-12-29T12:41:18.112Z,96216.97
2022-12-29T12:44:10.699Z,96214.47
2022-12-29T12:46:59.644Z,96210.06
2022-12-29T12:49:35.656Z,96210.22
2022-12-29T12:52:10.336Z,96206.16
2022-12-29T12:54:58.536Z,96207.63
2022-12-29T12:57:53.298Z,96205.25
2022-12-29T13:00:24.471Z,96210.25
2022-12-29T13:03:10.482Z,96200.69
2022-12-29T13:06:06.660Z,96202.28
2022-12-29T13:08:39.897Z,96202.19
2022-12-29T13:11:16.018Z,96204.09
2022-12-29T13:14:24.920Z,96202.69
2022-12-29T13:17:00.815Z,96201.28
2022-12-29T13:19:40.416Z,96210.22
2022-12-29T13:22:22.824Z,96216.75
2022-12-29T13:24:58.826Z,96215.09
2022-12-29T13:27:50.936Z,96209.44
2022-12-29T13:30:24.214Z,96204.53
2022-12-29T13:33:21.169Z,96209.34
2022-12-29T13:35:58.021Z,96208.69
2022-12-29T13:38:27.901Z,96212.56
2022-12-29T13:41:00.468Z,96212.38
2022-12-29T13:43:31.310Z,96222.22
2022-12-29T13:46:09.686Z,96217.91
2022-12-29T13:49:16.343Z,96219.09
2022-12-29T13:51:57.498Z,96215.88
2022-12-29T13:54:36.018Z,96225.66
2022-12-29T13:57:16.301Z,96228.56
2022-12-29T14:00:00.455Z,96225.31
2022-12-29T14:02:27.668Z,96233.25
2022-12-29T14:05:04.576Z,96230.69
2022-12-29T14:07:38.898Z,96237.22
2022-12-29T14:10:06.944Z,96239.69
2022-12-29T14:12:42.994Z,96236.84
2022-12-29T14:15:13.041Z,96237.38
2022-12-29T14:18:03.113Z,96243.97
2022-12-29T14:20:30.866Z,96246.34
2022-12-29T14:23:30.945Z,96246.50
2022-12-29T14:26:12.866Z,96250.13
2022-12-29T14:28:53.417Z,96244.50
2022-12-29T14:31:20.769Z,96243.59
2022-12-29T14:34:12.479Z,96238.97
2022-12-29T14:36:42.021Z,96238.63
2022-12-29T14:39:33.178Z,96237.44
2022-12-29T14:42:08.547Z,96243.06
2022-12-29T14:44:53.703Z,96240.56
2022-12-29T14:47:32.977Z,96241.44
2022-12-29T14:50:25.577Z,96238.06
2022-12-29T14:53:03.798Z,96247.59
2022-12-29T14:55:51.179Z,96249.22
2022-12-29T14:58:33.534Z,96247.63
2022-12-29T15:01:01.848Z,96257.28
2022-12-29T15:03:39.696Z,96251.19
2022-12-29T15:06:18.099Z,96256.38
2022-12-29T15:08:53.939Z,96254.16
2022-12-29T15:11:22.636Z,96266.88
2022-12-29T15:13:50.943Z,96258.66
2022-12-29T15:16:38.156Z,96269.22
2022-12-29T15:19:06.500Z,96267.34
2022-12-29T15:21:36.668Z,96269.91
2022-12-29T15:24:05.233Z,96279.38
2022-12-29T15:26:45.621Z,96273.72
2022-12-29T15:29:51.778Z,96273.69
2022-12-29T15:32:28.937Z,96278.13
2022-12-29T15:35:01.338Z,96280.47
2022-12-29T15:37:35.016Z,96276.72
2022-12-29T15:40:02.975Z,96281.59
2022-12-29T15:42:48.739Z,96280.31
2022-12-29T15:45:16.822Z,96282.13
2022-12-29T15:47:47.912Z,96278.34
2022-12-29T15:50:29.900Z,96278.97
2022-12-29T15:52:58.737Z,96273.72
2022-12-29T15:55:26.018Z,96268.88
2022-12-29T15:57:58.818Z,96276.44
2022-12-29T16:00:32.442Z,96269.38
2022-12-29T16:03:02.542Z,96271.91
2022-12-29T16:05:35.380Z,96270.03
2022-12-29T16:08:03.712Z,96269.16
2022-12-29T16:10:37.305Z,96279.75
2022-12-29T16:13:26.709Z,96273.41
2022-12-29T16:16:00.421Z,96281.94
2022-12-29T16:18:36.661Z,96282.75
2022-12-29T16:21:06.579Z,96283.59
2022-12-29T16:23:37.343Z,96283.81
2022-12-29T16:26:09.137Z,96284.47
2022-12-29T16:28:45.064Z,96282.13
2022-12-29T16:31:49.099Z,96276.78
2022-12-29T16:34:27.185Z,96271.69
2022-12-29T16:37:02.619Z,96273.09
2022-12-29T16:39:42.893Z,96279.53
2022-12-29T16:42:51.700Z,96283.34
2022-12-29T16:45:24.975Z,96286.97
2022-12-29T16:48:07.153Z,96290.19
2022-12-29T16:50:40.179Z,96288.97
2022-12-29T16:53:19.827Z,96285.81
2022-12-29T16:55:51.351Z,96279.41
2022-12-29T16:58:29.098Z,96283.25
2022-12-29T17:00:57.669Z,96284.84
2022-12-29T17:03:34.901Z,96281.09
2022-12-29T17:06:02.297Z,96291.09
2022-12-29T17:08:29.498Z,96286.53
2022-12-29T17:11:16.629Z,96284.34
2022-12-29T17:13:43.819Z,96294.22
2022-12-29T17:16:12.969Z,96293.22
2022-12-29T17:18:40.340Z,96290.31
2022-12-29T17:21:07.659Z,96295.13
2022-12-29T17:23:35.530Z,96292.94
2022-12-29T17:26:03.106Z,96296.75
2022-12-29T17:28:33.101Z,96291.81
2022-12-29T17:31:04.387Z,96301.81
2022-12-29T17:33:37.139Z,96297.03
2022-12-29T17:36:04.663Z,96285.09
2022-12-29T17:38:35.634Z,96298.50
2022-12-29T17:41:02.908Z,96298.53
2022-12-29T17:43:36.487Z,96301.50
2022-12-29T17:46:07.780Z,96286.16
2022-12-29T17:48:35.876Z,96289.75
2022-12-29T17:51:03.295Z,96289.78
2022-12-29T17:53:31.060Z,96288.56
2022-12-29T17:55:58.544Z,96285.59
2022-12-29T17:58:31.947Z,96291.59
2022-12-29T18:01:01.415Z,96280.59
2022-12-29T18:03:32.461Z,96281.41
2022-12-29T18:06:00.153Z,96278.59
2022-12-29T18:08:28.939Z,96280.97
2022-12-29T18:10:56.349Z,96280.56
2022-12-29T18:13:30.297Z,96279.38
2022-12-29T18:16:03.291Z,96284.75
2022-12-29T18:18:30.577Z,96290.94
2022-12-29T18:21:00.459Z,96292.94
2022-12-29T18:23:35.371Z,96285.53
2022-12-29T18:26:28.353Z,96272.72
2022-12-29T18:28:57.232Z,96277.94
2022-12-29T18:31:30.819Z,96277.16
2022-12-29T18:34:00.062Z,96262.00
2022-12-29T18:36:28.176Z,96264.19
2022-12-29T18:38:55.938Z,96263.81
2022-12-29T18:41:25.743Z,96267.81
2022-12-29T18:43:53.226Z,96265.19
2022-12-29T18:46:23.133Z,96268.00
2022-12-29T18:48:52.134Z,96261.81
2022-12-29T18:51:22.419Z,96261.22
2022-12-29T18:53:50.043Z,96261.78
2022-12-29T18:56:17.220Z,96258.78
2022-12-29T18:58:44.507Z,96257.81
2022-12-29T19:01:38.172Z,96260.00
2022-12-29T19:04:05.538Z,96260.59
2022-12-29T19:06:32.655Z,96256.59
2022-12-29T19:08:59.937Z,96265.19
2022-12-29T19:11:27.178Z,96260.78
2022-12-29T19:13:54.420Z,96262.22
2022-12-29T19:16:25.278Z,96253.84
2022-12-29T19:19:08.343Z,96254.44
2022-12-29T19:21:37.983Z,96250.47
2022-12-29T19:24:05.232Z,96246.88
2022-12-29T19:26:36.900Z,96248.88
2022-12-29T19:29:06.179Z,96254.06
2022-12-29T19:31:33.804Z,96247.09
2022-12-29T19:34:03.306Z,96241.91
2022-12-29T19:36:30.657Z,96244.50
2022-12-29T19:38:58.107Z,96249.09
2022-12-29T19:41:25.386Z,96238.09
2022-12-29T19:43:52.539Z,96236.50
2022-12-29T19:46:20.679Z,96234.13
2022-12-29T19:48:48.025Z,96226.31
2022-12-29T19:51:17.534Z,96227.09
2022-12-29T19:53:46.151Z,96220.13
2022-12-29T19:56:14.676Z,96229.53
2022-12-29T19:58:46.954Z,96220.38
2022-12-29T20:01:23.109Z,96214.75
2022-12-29T20:03:51.306Z,96216.38
2022-12-29T20:06:19.444Z,96224.75
2022-12-29T20:08:46.494Z,96228.94
2022-12-29T20:11:17.526Z,96224.16
2022-12-29T20:13:45.832Z,96217.78
2022-12-29T20:16:22.159Z,96221.56
2022-12-29T20:18:49.588Z,96224.16
2022-12-29T20:21:25.068Z,96224.75
2022-12-29T20:23:53.673Z,96223.53
2022-12-29T20:26:27.126Z,96213.16
2022-12-29T20:28:58.433Z,96219.34
2022-12-29T20:31:29.875Z,96224.34
2022-12-29T20:33:57.299Z,96224.16
2022-12-29T20:36:28.798Z,96222.34
2022-12-29T20:38:58.536Z,96229.13
2022-12-29T20:41:26.419Z,96219.72
2022-12-29T20:43:54.578Z,96227.69
2022-12-29T20:46:25.228Z,96220.13
2022-12-29T20:48:55.822Z,96227.31
2022-12-29T20:51:23.059Z,96218.53
2022-12-29T20:53:50.418Z,96215.56
2022-12-29T20:56:22.390Z,96218.16
2022-12-29T20:59:25.819Z,96215.94
2022-12-29T21:01:37.810Z,96220.53
2022-12-29T21:04:05.936Z,96223.53
2022-12-29T21:06:33.659Z,96218.13
2022-12-29T21:09:01.223Z,96219.13
2022-12-29T21:11:29.058Z,96232.69
2022-12-29T21:13:59.353Z,96228.69
2022-12-29T21:16:28.924Z,96223.91
2022-12-29T21:18:56.227Z,96225.44
2022-12-29T21:21:25.713Z,96223.47
2022-12-29T21:23:53.575Z,96213.09
2022-12-29T21:26:23.094Z,96211.28
2022-12-29T21:28:51.340Z,96205.13
2022-12-29T21:31:48.299Z,96202.72
2022-12-29T21:34:15.666Z,96199.72
2022-12-29T21:36:42.818Z,96201.13
2022-12-29T21:39:10.144Z,96203.91
2022-12-29T21:41:37.218Z,96192.19
2022-12-29T21:44:23.499Z,96185.59
2022-12-29T21:46:50.753Z,96184.00
2022-12-29T21:49:17.938Z,96182.41
2022-12-29T21:51:51.202Z,96178.03
2022-12-29T21:54:42.664Z,96182.22
2022-12-29T21:57:10.585Z,96171.09
2022-12-29T21:59:56.750Z,96160.91
2022-12-29T22:02:46.590Z,96169.28
2022-12-29T22:05:34.740Z,96158.13
2022-12-29T22:08:20.897Z,96156.94
2022-12-29T22:11:07.611Z,96154.94
2022-12-29T22:13:36.852Z,96151.34
2022-12-29T22:16:09.424Z,96142.94
2022-12-29T22:18:37.258Z,96155.91
2022-12-29T22:21:10.246Z,96160.31
2022-12-29T22:23:38.510Z,96159.31
2022-12-29T22:26:07.697Z,96155.72
2022-12-29T22:28:40.678Z,96160.91
2022-12-29T22:31:21.972Z,96157.09
2022-12-29T22:33:49.219Z,96154.13
2022-12-29T22:36:16.459Z,96157.09
2022-12-29T22:38:43.618Z,96158.28
2022-12-29T22:41:10.781Z,96148.91
2022-12-29T22:43:38.063Z,96151.09
2022-12-29T22:46:07.960Z,96159.06
2022-12-29T22:48:36.257Z,96152.47
2022-12-29T22:51:03.695Z,96154.84
2022-12-29T22:53:31.082Z,96147.88
2022-12-29T22:56:02.857Z,96146.31
2022-12-29T22:58:30.053Z,96157.25
2022-12-29T23:00:57.215Z,96157.69
2022-12-29T23:03:24.761Z,96159.69
2022-12-29T23:06:02.946Z,96158.88
2022-12-29T23:08:32.833Z,96157.88
2022-12-29T23:11:00.626Z,96156.06
2022-12-29T23:13:28.278Z,96147.09
2022-12-29T23:15:55.918Z,96149.88
2022-12-29T23:18:23.425Z,96143.88
2022-12-29T23:20:50.939Z,96147.69
2022-12-29T23:23:46.463Z,96151.25
2022-12-29T23:26:16.473Z,96150.84
2022-12-29T23:28:43.702Z,96146.72
2022-12-29T23:31:11.216Z,96155.06
2022-12-29T23:33:38.631Z,96172.00
2022-12-29T23:36:06.302Z,96169.03
2022-12-29T23:38:33.897Z,96175.19
2022-12-29T23:41:01.293Z,96175.75
2022-12-29T23:43:28.502Z,96166.81
2022-12-29T23:45:56.057Z,96170.38
2022-12-29T23:48:23.383Z,96176.75
2022-12-29T23:50:51.299Z,96176.56
2022-12-29T23:53:18.388Z,96167.19
2022-12-29T23:55:52.421Z,96164.22
2022-12-29T23:58:19.576Z,96164.59
